Time;durP1;ratioP1;P1;durP2;ratioP2;P2;SDS_P1;SDS_P2;PMS_P1;PMS_P2;Temp;Humidity;BMP_temperature;BMP_pressure;BME280_temperature;BME280_humidity;BME280_pressure;Samples;Min_cycle;Max_cycle;Signal;HPM_P1;HPM_P2
2022/04/19 00:00:26;;;;;;;3.53;1.47;;;7.20;98.00;;;;;;6274453;22;20722;-69
2022/04/19 00:02:52;;;;;;;1.20;1.10;;;7.20;98.00;;;;;;6274141;22;20913;-68
2022/04/19 00:05:20;;;;;;;1.20;1.00;;;7.30;98.00;;;;;;6246976;22;20419;-69
2022/04/19 00:07:47;;;;;;;1.67;1.13;;;7.30;98.00;;;;;;6274555;22;20411;-69
2022/04/19 00:10:14;;;;;;;1.80;1.70;;;7.40;98.00;;;;;;6247645;22;20795;-69
2022/04/19 00:12:43;;;;;;;1.30;1.10;;;7.40;98.00;;;;;;6274488;22;20415;-68
2022/04/19 00:15:12;;;;;;;1.30;1.00;;;7.20;98.00;;;;;;6274407;22;20525;-72
2022/04/19 00:17:39;;;;;;;1.20;1.00;;;7.00;98.00;;;;;;6274074;22;20444;-69
2022/04/19 00:20:07;;;;;;;1.20;1.10;;;6.90;98.00;;;;;;6274300;22;20400;-68
2022/04/19 00:22:34;;;;;;;2.30;1.60;;;6.80;98.00;;;;;;6274376;22;20446;-69
2022/04/19 00:25:01;;;;;;;1.30;1.17;;;6.90;98.00;;;;;;6274101;22;20403;-68
2022/04/19 00:27:28;;;;;;;1.77;1.47;;;6.70;98.00;;;;;;6275819;22;20626;-68
2022/04/19 00:29:55;;;;;;;1.20;1.00;;;6.60;98.00;;;;;;6276419;22;20406;-68
2022/04/19 00:32:24;;;;;;;1.20;1.03;;;6.60;98.00;;;;;;6276216;22;20398;-68
2022/04/19 00:34:51;;;;;;;1.20;1.10;;;6.50;98.00;;;;;;6249175;22;20408;-68
2022/04/19 00:37:19;;;;;;;1.20;1.10;;;6.50;98.00;;;;;;6249750;22;20451;-68
2022/04/19 00:39:46;;;;;;;1.20;1.00;;;6.40;98.00;;;;;;6276071;22;20416;-68
2022/04/19 00:42:14;;;;;;;1.77;1.67;;;6.30;98.00;;;;;;6249177;22;20478;-68
2022/04/19 00:44:41;;;;;;;1.20;1.10;;;6.30;98.00;;;;;;6276441;22;20460;-68
2022/04/19 00:47:09;;;;;;;1.20;1.03;;;6.30;98.00;;;;;;6276391;22;20728;-68
2022/04/19 00:49:39;;;;;;;1.60;1.30;;;6.30;98.00;;;;;;6275928;22;20500;-68
2022/04/19 00:52:08;;;;;;;1.20;1.10;;;6.50;98.00;;;;;;6275950;22;20398;-68
2022/04/19 00:54:35;;;;;;;1.47;1.20;;;6.60;98.00;;;;;;6276249;22;20399;-68
2022/04/19 00:57:03;;;;;;;1.60;1.10;;;6.60;98.00;;;;;;6276052;22;20430;-68
2022/04/19 00:59:31;;;;;;;1.50;1.37;;;6.50;98.00;;;;;;6275891;22;20429;-68
2022/04/19 01:01:58;;;;;;;3.53;1.63;;;6.30;98.00;;;;;;6276111;22;20496;-68
2022/04/19 01:04:25;;;;;;;1.20;1.00;;;6.30;98.00;;;;;;6275713;22;20408;-68
2022/04/19 01:06:59;;;;;;;1.30;1.10;;;6.40;98.00;;;;;;6275966;22;20418;-69
2022/04/19 01:09:26;;;;;;;1.63;1.20;;;6.20;98.00;;;;;;6248668;22;20452;-68
2022/04/19 01:14:38;;;;;;;1.30;1.10;;;6.30;98.00;;;;;;6275862;22;20390;-68
2022/04/19 01:17:06;;;;;;;1.20;1.10;;;6.50;98.00;;;;;;6275718;22;20449;-68
2022/04/19 01:19:37;;;;;;;1.30;1.30;;;6.50;98.00;;;;;;6275958;22;20420;-68
2022/04/19 01:22:06;;;;;;;1.30;1.20;;;6.20;98.00;;;;;;6275875;22;20393;-68
2022/04/19 01:24:33;;;;;;;1.20;1.00;;;6.00;98.00;;;;;;6275753;22;20398;-68
2022/04/19 01:27:00;;;;;;;1.73;1.57;;;6.00;98.00;;;;;;6275404;22;20450;-68
2022/04/19 01:29:27;;;;;;;1.30;1.10;;;5.90;98.00;;;;;;6275929;22;20414;-68
2022/04/19 01:31:55;;;;;;;1.90;1.47;;;5.80;98.00;;;;;;6275483;22;20922;-68
2022/04/19 01:34:22;;;;;;;1.77;1.73;;;5.80;98.00;;;;;;6276198;22;20751;-68
2022/04/19 01:36:49;;;;;;;1.20;1.20;;;5.80;98.00;;;;;;6248623;22;20425;-68
2022/04/19 01:39:17;;;;;;;1.50;1.10;;;5.90;98.00;;;;;;6275572;22;20921;-68
2022/04/19 01:41:45;;;;;;;1.30;1.00;;;5.90;98.00;;;;;;6275291;22;20415;-68
2022/04/19 01:44:15;;;;;;;1.20;1.00;;;5.90;98.00;;;;;;6275429;22;20855;-68
2022/04/19 01:46:42;;;;;;;1.30;1.10;;;6.00;98.00;;;;;;6275420;22;20405;-68
2022/04/19 01:49:08;;;;;;;1.20;1.00;;;5.90;98.00;;;;;;6275711;22;20438;-68
2022/04/19 01:51:38;;;;;;;2.17;1.47;;;5.80;98.00;;;;;;6275573;22;20416;-68
2022/04/19 01:54:05;;;;;;;1.47;1.03;;;5.80;98.00;;;;;;6275665;22;20614;-68
2022/04/19 01:56:33;;;;;;;1.80;1.47;;;6.00;98.00;;;;;;6275655;22;20813;-68
2022/04/19 01:59:00;;;;;;;1.40;1.30;;;6.00;98.00;;;;;;6275635;22;20398;-68
2022/04/19 02:01:27;;;;;;;1.30;1.20;;;5.80;98.00;;;;;;6275520;22;20743;-68
2022/04/19 02:03:54;;;;;;;1.20;1.03;;;5.60;98.00;;;;;;6275521;22;20418;-68
2022/04/19 02:06:21;;;;;;;1.20;1.00;;;5.50;98.00;;;;;;6275113;22;20427;-68
2022/04/19 02:08:48;;;;;;;1.20;1.00;;;5.50;98.00;;;;;;6274986;22;20413;-68
2022/04/19 02:11:15;;;;;;;1.40;1.10;;;5.50;98.00;;;;;;6275411;22;20477;-67
2022/04/19 02:13:43;;;;;;;1.20;1.00;;;5.50;98.00;;;;;;6275597;22;20410;-68
2022/04/19 02:16:10;;;;;;;2.07;1.30;;;5.40;98.00;;;;;;6274853;22;20477;-68
2022/04/19 02:18:37;;;;;;;1.20;1.10;;;5.50;98.00;;;;;;6275372;22;20465;-68
2022/04/19 02:21:04;;;;;;;1.20;1.10;;;5.60;98.00;;;;;;6248436;22;20419;-68
2022/04/19 02:23:31;;;;;;;1.20;1.10;;;5.70;98.00;;;;;;6275586;22;20446;-67
2022/04/19 02:25:58;;;;;;;1.87;1.27;;;5.70;98.00;;;;;;6249351;22;20464;-68
2022/04/19 02:28:25;;;;;;;1.20;1.00;;;5.70;98.00;;;;;;6276406;22;20744;-68
2022/04/19 02:30:53;;;;;;;1.20;1.10;;;5.60;98.00;;;;;;6275202;22;20775;-68
2022/04/19 02:33:21;;;;;;;1.90;1.30;;;5.60;98.00;;;;;;6274936;22;20904;-68
2022/04/19 02:35:48;;;;;;;1.20;1.10;;;5.30;98.00;;;;;;6274614;22;20478;-67
2022/04/19 02:38:15;;;;;;;2.30;1.60;;;5.10;98.00;;;;;;6275175;22;20416;-67
2022/04/19 02:40:42;;;;;;;1.20;1.20;;;5.10;98.00;;;;;;6275315;22;20854;-68
2022/04/19 02:43:09;;;;;;;1.20;1.00;;;5.00;98.00;;;;;;6274797;22;20740;-68
2022/04/19 02:45:36;;;;;;;1.20;1.00;;;5.00;98.00;;;;;;6275081;22;20450;-68
2022/04/19 02:48:07;;;;;;;1.30;1.13;;;5.00;98.00;;;;;;6274471;22;20416;-67
2022/04/19 02:50:35;;;;;;;1.20;1.00;;;4.90;98.00;;;;;;6274888;22;20742;-68
2022/04/19 02:53:03;;;;;;;1.30;1.17;;;4.80;98.00;;;;;;6274964;22;20403;-68
2022/04/19 02:55:30;;;;;;;1.63;1.23;;;4.80;98.00;;;;;;6274628;22;20431;-68
2022/04/19 02:57:57;;;;;;;1.20;1.00;;;4.80;98.00;;;;;;6274641;22;20416;-68
2022/04/19 03:00:27;;;;;;;1.60;1.33;;;4.80;98.00;;;;;;6274405;22;20422;-67
2022/04/19 03:02:54;;;;;;;1.73;1.20;;;4.70;98.00;;;;;;6274979;22;20436;-68
2022/04/19 03:05:23;;;;;;;1.20;1.00;;;4.70;98.00;;;;;;6275179;22;20451;-68
2022/04/19 03:07:50;;;;;;;1.63;1.10;;;4.70;98.00;;;;;;6275096;22;20434;-67
2022/04/19 03:10:17;;;;;;;1.50;1.20;;;4.90;98.00;;;;;;6274486;22;20975;-68
2022/04/19 03:12:44;;;;;;;1.20;1.00;;;4.90;98.00;;;;;;6274985;22;20549;-67
2022/04/19 03:15:11;;;;;;;1.40;1.10;;;4.90;98.00;;;;;;6274882;22;20442;-67
2022/04/19 03:17:39;;;;;;;1.40;1.33;;;5.00;98.00;;;;;;6274898;22;20440;-67
2022/04/19 03:20:08;;;;;;;1.40;1.23;;;5.10;98.00;;;;;;6248152;22;20416;-67
2022/04/19 03:28:06;;;;;;;2.00;1.53;;;4.90;98.00;;;;;;6284729;22;20478;-68
2022/04/19 03:30:33;;;;;;;1.23;1.00;;;4.70;98.00;;;;;;6274268;22;20414;-67
2022/04/19 03:33:00;;;;;;;1.40;1.20;;;4.50;98.00;;;;;;6274451;22;20910;-67
2022/04/19 03:35:27;;;;;;;1.40;1.30;;;4.50;98.00;;;;;;6274195;22;20489;-67
2022/04/19 03:37:56;;;;;;;1.40;1.30;;;4.70;98.00;;;;;;6274609;22;20436;-67
2022/04/19 03:40:24;;;;;;;1.63;1.10;;;4.90;98.00;;;;;;6274285;22;20475;-67
2022/04/19 03:42:55;;;;;;;1.20;1.20;;;5.00;98.00;;;;;;6274374;22;20488;-67
2022/04/19 03:45:22;;;;;;;1.27;1.20;;;5.00;98.00;;;;;;6274185;22;20395;-67
2022/04/19 03:47:50;;;;;;;1.20;1.07;;;4.90;98.00;;;;;;6273661;22;20751;-67
2022/04/19 03:50:17;;;;;;;1.40;1.20;;;5.10;98.00;;;;;;6247716;22;20443;-67
2022/04/19 03:52:45;;;;;;;1.70;1.20;;;5.10;98.00;;;;;;6274247;22;20417;-67
2022/04/19 03:55:13;;;;;;;1.20;1.07;;;5.20;98.00;;;;;;6274420;22;20393;-67
2022/04/19 03:57:40;;;;;;;1.20;1.13;;;4.90;98.00;;;;;;6274263;22;20513;-67
2022/04/19 04:00:09;;;;;;;2.40;1.27;;;4.90;98.00;;;;;;6274023;22;20439;-67
2022/04/19 04:02:36;;;;;;;1.20;1.10;;;5.00;98.00;;;;;;6274093;22;20453;-67
2022/04/19 04:05:04;;;;;;;1.87;1.50;;;5.00;98.00;;;;;;6274233;22;20909;-67
2022/04/19 04:07:32;;;;;;;1.50;1.30;;;5.00;98.00;;;;;;6274884;22;20398;-67
2022/04/19 04:09:59;;;;;;;1.33;1.23;;;5.20;98.00;;;;;;6274786;22;20416;-67
2022/04/19 04:12:27;;;;;;;1.20;1.10;;;5.10;98.00;;;;;;6274178;22;20437;-67
2022/04/19 04:14:54;;;;;;;1.20;1.00;;;4.90;98.00;;;;;;6273995;22;20414;-67
2022/04/19 04:17:24;;;;;;;2.03;1.17;;;4.70;98.00;;;;;;6274258;22;20440;-67
2022/04/19 04:19:51;;;;;;;1.30;1.10;;;4.60;98.00;;;;;;6273519;22;20472;-67
2022/04/19 04:22:18;;;;;;;1.20;1.10;;;4.70;98.00;;;;;;6273917;22;20450;-67
2022/04/19 04:24:45;;;;;;;1.30;1.20;;;4.60;98.00;;;;;;6274085;22;21338;-67
2022/04/19 04:27:12;;;;;;;1.20;1.00;;;4.50;98.00;;;;;;6274283;22;20773;-67
2022/04/19 04:29:41;;;;;;;1.30;1.10;;;4.50;98.00;;;;;;6274057;22;20422;-67
2022/04/19 04:32:09;;;;;;;1.20;0.97;;;4.50;98.00;;;;;;6273940;22;20413;-67
2022/04/19 04:34:36;;;;;;;1.20;1.10;;;4.50;98.00;;;;;;6274021;22;20424;-67
2022/04/19 04:37:03;;;;;;;1.20;1.10;;;4.50;98.00;;;;;;6273852;22;20948;-67
2022/04/19 04:39:31;;;;;;;1.67;1.27;;;4.60;98.00;;;;;;6274330;22;20460;-67
2022/04/19 04:41:58;;;;;;;1.83;1.63;;;4.60;98.00;;;;;;6274462;22;20395;-67
2022/04/19 04:44:24;;;;;;;1.20;1.10;;;4.80;98.00;;;;;;6273871;22;20423;-67
2022/04/19 04:49:39;;;;;;;1.67;1.10;;;4.70;98.00;;;;;;6275377;22;20502;-67
2022/04/19 04:52:08;;;;;;;1.40;1.13;;;4.40;98.00;;;;;;6275412;22;20633;-67
2022/04/19 04:54:36;;;;;;;1.57;1.40;;;4.40;98.00;;;;;;6274552;22;20884;-67
2022/04/19 04:57:03;;;;;;;1.20;1.00;;;4.40;98.00;;;;;;6273822;22;20954;-67
2022/04/19 04:59:34;;;;;;;1.67;1.30;;;4.30;98.00;;;;;;6274428;22;20406;-67
2022/04/19 05:02:04;;;;;;;1.50;1.10;;;4.20;98.00;;;;;;6247144;22;20419;-67
2022/04/19 05:04:32;;;;;;;2.17;1.30;;;4.30;98.00;;;;;;6274168;22;20407;-67
2022/04/19 05:07:00;;;;;;;2.50;1.40;;;4.30;98.00;;;;;;6274331;22;20400;-67
2022/04/19 05:09:27;;;;;;;1.63;1.53;;;4.30;98.00;;;;;;6273930;22;20909;-67
2022/04/19 05:11:53;;;;;;;1.97;1.77;;;4.40;98.00;;;;;;6274602;22;20435;-67
2022/04/19 05:14:22;;;;;;;1.50;1.33;;;4.40;98.00;;;;;;6275912;22;20403;-67
2022/04/19 05:16:49;;;;;;;1.70;1.57;;;4.50;98.00;;;;;;6276507;22;20497;-67
2022/04/19 05:19:17;;;;;;;1.20;1.00;;;4.70;98.00;;;;;;6276554;22;20416;-67
2022/04/19 05:21:45;;;;;;;1.20;1.00;;;4.80;98.00;;;;;;6276137;22;20437;-67
2022/04/19 05:24:12;;;;;;;1.20;1.20;;;4.90;98.00;;;;;;6276042;22;20783;-67
2022/04/19 05:26:39;;;;;;;1.47;1.37;;;4.90;98.00;;;;;;6275865;22;20428;-67
2022/04/19 05:29:06;;;;;;;2.60;1.40;;;5.00;98.00;;;;;;6275187;22;20497;-67
2022/04/19 05:31:33;;;;;;;1.40;1.10;;;5.00;98.00;;;;;;6275924;22;20418;-67
2022/04/19 05:34:00;;;;;;;1.20;1.00;;;5.10;98.00;;;;;;6276061;22;20461;-67
2022/04/19 05:36:29;;;;;;;2.07;1.43;;;5.20;98.00;;;;;;6275627;22;20414;-67
2022/04/19 05:39:00;;;;;;;1.30;1.20;;;5.30;98.00;;;;;;6275913;22;20419;-67
2022/04/19 05:41:27;;;;;;;1.20;1.10;;;5.30;98.00;;;;;;6275640;22;20405;-67
2022/04/19 05:43:55;;;;;;;1.30;1.20;;;5.30;98.00;;;;;;6275257;22;20426;-67
2022/04/19 05:46:22;;;;;;;24.63;3.00;;;5.20;98.00;;;;;;6275634;22;20481;-67
2022/04/19 05:48:49;;;;;;;1.50;1.30;;;5.30;98.00;;;;;;6275510;22;20417;-67
2022/04/19 05:51:16;;;;;;;1.53;1.27;;;5.50;98.00;;;;;;6275278;22;20424;-66
2022/04/19 05:53:45;;;;;;;1.20;1.10;;;5.50;98.00;;;;;;6276066;22;20417;-67
2022/04/19 05:56:12;;;;;;;1.63;1.20;;;5.60;98.00;;;;;;6275551;22;20566;-67
2022/04/19 05:58:39;;;;;;;1.50;1.50;;;5.70;98.00;;;;;;6275531;22;20444;-67
2022/04/19 06:01:06;;;;;;;1.30;1.10;;;5.60;98.00;;;;;;6275122;22;20905;-67
2022/04/19 06:06:19;;;;;;;1.20;1.17;;;5.60;98.00;;;;;;6275302;22;20390;-68
2022/04/19 06:08:47;;;;;;;1.20;1.10;;;5.60;98.00;;;;;;6275331;22;20399;-67
2022/04/19 06:11:14;;;;;;;1.20;1.10;;;5.70;98.00;;;;;;6248336;22;20946;-67
2022/04/19 06:13:42;;;;;;;1.20;1.13;;;5.80;98.00;;;;;;6275012;22;20413;-67
2022/04/19 06:16:09;;;;;;;3.10;1.53;;;5.90;98.00;;;;;;6275415;22;20404;-67
2022/04/19 06:18:36;;;;;;;1.60;1.10;;;5.80;98.00;;;;;;6275068;22;20760;-67
2022/04/19 06:21:05;;;;;;;1.70;1.63;;;5.90;98.00;;;;;;6275380;22;20736;-67
2022/04/19 06:23:32;;;;;;;1.20;1.10;;;6.00;98.00;;;;;;6275631;22;20463;-67
2022/04/19 06:26:01;;;;;;;1.20;1.10;;;6.10;98.00;;;;;;6275043;22;20738;-67
2022/04/19 06:28:28;;;;;;;1.20;1.20;;;6.40;98.00;;;;;;6275276;22;20420;-67
2022/04/19 06:30:55;;;;;;;1.50;1.33;;;6.70;98.00;;;;;;6247846;22;20903;-67
2022/04/19 06:33:22;;;;;;;1.30;1.27;;;7.00;98.00;;;;;;6275174;22;20411;-67
2022/04/19 06:35:49;;;;;;;2.37;1.20;;;7.20;98.00;;;;;;6275100;22;20462;-67
2022/04/19 06:38:16;;;;;;;1.20;1.00;;;7.30;98.00;;;;;;6275190;22;20489;-67
2022/04/19 06:40:43;;;;;;;1.20;1.10;;;7.40;98.00;;;;;;6274732;22;20458;-67
2022/04/19 06:43:11;;;;;;;2.37;1.87;;;7.50;98.00;;;;;;6275085;22;20425;-67
2022/04/19 06:45:39;;;;;;;2.37;1.10;;;7.60;98.00;;;;;;6275389;22;20457;-67
2022/04/19 06:48:06;;;;;;;1.50;1.33;;;7.70;98.00;;;;;;6275352;22;20402;-67
2022/04/19 06:50:34;;;;;;;2.03;1.27;;;7.80;98.00;;;;;;6272581;22;20419;-67
2022/04/19 06:53:01;;;;;;;1.37;1.33;;;8.00;98.00;;;;;;6274697;22;20420;-67
2022/04/19 06:55:28;;;;;;;1.77;1.40;;;8.20;98.00;;;;;;6274629;22;20415;-67
2022/04/19 06:57:55;;;;;;;2.70;1.87;;;8.30;98.00;;;;;;6274884;22;20439;-67
2022/04/19 07:00:23;;;;;;;1.50;1.30;;;8.50;98.00;;;;;;6275159;22;20432;-67
2022/04/19 07:02:50;;;;;;;1.30;1.10;;;8.70;98.00;;;;;;6274926;22;20469;-67
2022/04/19 07:05:17;;;;;;;1.77;1.30;;;8.80;98.00;;;;;;6274944;22;20412;-67
2022/04/19 07:07:44;;;;;;;1.20;1.10;;;9.00;98.00;;;;;;6274519;22;20878;-67
2022/04/19 07:10:12;;;;;;;1.50;1.23;;;9.20;98.00;;;;;;6274526;22;20404;-67
2022/04/19 07:12:40;;;;;;;1.20;1.10;;;9.20;98.00;;;;;;6275207;22;20409;-67
2022/04/19 07:15:12;;;;;;;1.67;1.27;;;9.30;98.00;;;;;;6274899;22;20435;-67
2022/04/19 07:17:43;;;;;;;1.57;1.40;;;9.40;98.00;;;;;;6274788;22;20428;-67
2022/04/19 07:28:27;;;;;;;6.17;2.60;;;10.10;98.00;;;;;;6273443;22;20389;-68
2022/04/19 07:30:54;;;;;;;1.20;1.00;;;10.10;98.00;;;;;;6273584;22;20609;-69
2022/04/19 07:33:22;;;;;;;1.53;1.50;;;10.30;97.80;;;;;;6273879;22;20428;-69
2022/04/19 07:35:53;;;;;;;2.70;1.63;;;10.40;97.90;;;;;;6273167;22;20407;-68
2022/04/19 07:38:20;;;;;;;1.90;1.50;;;10.60;98.00;;;;;;6273489;22;20430;-67
2022/04/19 07:40:47;;;;;;;1.47;1.30;;;10.80;97.10;;;;;;6273491;22;20461;-69
2022/04/19 07:43:14;;;;;;;1.77;1.53;;;11.00;96.90;;;;;;6273131;22;20450;-68
2022/04/19 07:45:41;;;;;;;1.53;1.27;;;11.10;95.00;;;;;;6273411;22;20447;-68
2022/04/19 07:48:09;;;;;;;1.20;1.17;;;11.30;96.10;;;;;;6273488;22;20399;-70
2022/04/19 07:50:39;;;;;;;2.23;1.40;;;11.40;95.70;;;;;;6272602;22;20396;-68
2022/04/19 07:53:06;;;;;;;1.50;1.30;;;11.60;95.60;;;;;;6246011;22;20447;-68
2022/04/19 07:55:33;;;;;;;2.23;1.23;;;11.80;95.20;;;;;;6272906;22;20429;-67
2022/04/19 07:58:00;;;;;;;1.20;1.07;;;11.90;93.50;;;;;;6273060;22;20479;-67
2022/04/19 08:00:28;;;;;;;1.60;1.40;;;12.00;94.00;;;;;;6272859;22;20941;-67
2022/04/19 08:02:55;;;;;;;1.87;1.30;;;12.10;92.50;;;;;;6273326;22;20736;-67
2022/04/19 08:05:25;;;;;;;1.90;1.20;;;12.30;92.50;;;;;;6274323;22;20486;-68
2022/04/19 08:07:54;;;;;;;1.80;1.30;;;12.40;92.80;;;;;;6273765;22;20763;-67
2022/04/19 08:10:21;;;;;;;1.40;1.20;;;12.50;90.20;;;;;;6273314;22;20489;-67
2022/04/19 08:12:49;;;;;;;2.20;1.40;;;12.70;90.90;;;;;;6272841;22;20504;-68
2022/04/19 08:15:16;;;;;;;2.13;1.43;;;12.90;89.60;;;;;;6273458;22;20824;-67
2022/04/19 08:17:43;;;;;;;2.10;1.50;;;13.00;90.50;;;;;;6273083;22;20490;-67
2022/04/19 08:20:13;;;;;;;1.80;1.60;;;13.20;89.50;;;;;;6273309;22;20455;-67
2022/04/19 08:22:39;;;;;;;1.20;1.10;;;13.40;87.80;;;;;;6273075;22;20398;-67
2022/04/19 08:25:10;;;;;;;1.40;1.20;;;13.50;84.80;;;;;;6273009;22;20422;-67
2022/04/19 08:27:39;;;;;;;2.17;1.50;;;13.60;85.80;;;;;;6245837;22;20422;-67
2022/04/19 08:30:08;;;;;;;1.20;1.10;;;13.90;86.30;;;;;;6273186;22;20436;-67
2022/04/19 08:32:35;;;;;;;1.87;1.60;;;14.10;85.40;;;;;;6221596;22;20769;-67
2022/04/19 08:35:02;;;;;;;2.80;1.87;;;14.10;82.80;;;;;;6273150;22;20420;-67
2022/04/19 08:37:31;;;;;;;1.70;1.40;;;14.20;83.70;;;;;;6272637;22;20895;-67
2022/04/19 08:39:58;;;;;;;1.50;1.30;;;14.30;83.70;;;;;;6273058;22;20449;-67
2022/04/19 08:42:27;;;;;;;2.47;1.40;;;14.40;82.60;;;;;;6273056;22;20778;-67
2022/04/19 08:44:54;;;;;;;1.70;1.40;;;14.40;81.50;;;;;;6272711;22;20735;-67
2022/04/19 08:47:23;;;;;;;2.07;1.70;;;14.50;82.80;;;;;;6273616;22;20460;-67
2022/04/19 08:49:53;;;;;;;1.33;1.17;;;14.50;81.50;;;;;;6274348;22;20417;-68
2022/04/19 08:52:20;;;;;;;3.20;1.93;;;14.60;84.50;;;;;;6275060;22;20413;-67
2022/04/19 08:57:35;;;;;;;2.67;1.50;;;14.90;81.70;;;;;;6274826;22;20919;-67
2022/04/19 09:00:04;;;;;;;2.83;1.93;;;14.90;80.20;;;;;;6274644;22;20417;-67
2022/04/19 09:02:33;;;;;;;1.73;1.23;;;15.00;82.10;;;;;;6275131;22;20393;-67
2022/04/19 09:05:21;;;;;;;1.47;1.23;;;15.10;81.50;;;;;;6274463;22;20419;-67
2022/04/19 09:07:51;;;;;;;1.30;1.20;;;15.40;83.80;;;;;;6263284;22;20533;-69
2022/04/19 09:10:27;;;;;;;1.93;1.30;;;15.70;88.70;;;;;;6275178;22;20741;-68
2022/04/19 09:13:00;;;;;;;1.80;1.70;;;16.30;81.70;;;;;;6274956;22;20402;-67
2022/04/19 09:15:37;;;;;;;1.60;1.40;;;16.20;78.90;;;;;;6275034;22;20400;-67
2022/04/19 09:18:05;;;;;;;2.37;1.20;;;16.20;79.30;;;;;;6275115;22;20474;-67
2022/04/19 09:20:32;;;;;;;1.60;1.37;;;16.30;82.50;;;;;;6274750;22;20415;-67
2022/04/19 09:23:04;;;;;;;2.67;1.73;;;16.50;80.70;;;;;;6274259;22;20810;-68
2022/04/19 09:25:33;;;;;;;1.47;1.30;;;16.60;76.70;;;;;;6274875;22;20403;-69
2022/04/19 09:28:04;;;;;;;1.97;1.67;;;16.70;77.30;;;;;;6274604;22;20400;-68
2022/04/19 09:30:34;;;;;;;1.40;1.30;;;16.80;73.90;;;;;;6274853;22;20405;-68
2022/04/19 09:33:03;;;;;;;1.83;1.40;;;16.90;75.90;;;;;;6274752;22;20435;-70
2022/04/19 09:35:31;;;;;;;2.67;1.90;;;17.10;75.50;;;;;;6274855;22;20736;-69
2022/04/19 09:37:58;;;;;;;2.17;1.40;;;17.20;76.20;;;;;;6272462;22;20443;-69
2022/04/19 09:40:30;;;;;;;2.03;1.60;;;17.40;75.80;;;;;;6274435;22;20413;-68
2022/04/19 09:42:57;;;;;;;1.70;1.53;;;17.50;74.30;;;;;;6274286;22;20420;-68
2022/04/19 09:45:28;;;;;;;1.90;1.40;;;17.90;78.50;;;;;;6274800;22;20393;-68
2022/04/19 09:47:55;;;;;;;1.57;1.53;;;18.00;75.40;;;;;;6274425;22;20472;-68
2022/04/19 09:50:22;;;;;;;2.10;1.30;;;18.00;76.60;;;;;;6246450;22;20454;-68
2022/04/19 09:52:51;;;;;;;1.53;1.50;;;18.20;75.50;;;;;;6273441;22;20933;-69
2022/04/19 09:55:19;;;;;;;2.00;1.40;;;18.30;72.40;;;;;;6274476;22;21137;-68
2022/04/19 09:57:47;;;;;;;2.13;1.30;;;17.90;69.50;;;;;;6273842;22;20397;-68
2022/04/19 10:00:17;;;;;;;1.50;1.40;;;18.00;72.30;;;;;;6274565;22;20466;-68
2022/04/19 10:08:19;;;;;;;1.50;1.10;;;18.80;72.20;;;;;;6274659;22;20388;-68
2022/04/19 10:10:48;;;;;;;1.63;1.30;;;19.00;67.80;;;;;;6274441;22;20480;-68
2022/04/19 10:13:18;;;;;;;2.07;1.70;;;19.10;68.60;;;;;;6249380;22;20419;-68
2022/04/19 10:15:45;;;;;;;3.47;2.07;;;19.30;69.00;;;;;;6275788;22;20404;-67
2022/04/19 10:18:14;;;;;;;1.60;1.20;;;19.20;66.90;;;;;;6276045;22;20447;-69
2022/04/19 10:20:44;;;;;;;1.73;1.40;;;19.20;68.70;;;;;;6274970;22;20405;-68
2022/04/19 10:23:11;;;;;;;1.90;1.40;;;19.20;68.40;;;;;;6274741;22;20412;-68
2022/04/19 10:25:44;;;;;;;2.13;1.57;;;19.20;69.10;;;;;;6274590;22;20425;-68
2022/04/19 10:28:13;;;;;;;2.10;1.27;;;19.40;67.40;;;;;;6274606;22;20711;-68
2022/04/19 10:30:47;;;;;;;1.40;1.20;;;19.40;67.60;;;;;;6274627;22;20433;-68
2022/04/19 10:33:48;;;;;;;1.50;1.20;;;19.40;67.40;;;;;;6274649;22;20420;-67
2022/04/19 10:36:17;;;;;;;1.60;1.40;;;19.40;67.90;;;;;;6274089;22;20413;-68
2022/04/19 10:38:44;;;;;;;1.73;1.40;;;19.50;67.10;;;;;;6247660;22;20425;-69
2022/04/19 10:41:11;;;;;;;1.60;1.50;;;19.60;66.30;;;;;;6274357;22;20401;-67
2022/04/19 10:43:38;;;;;;;1.60;1.20;;;19.70;66.70;;;;;;6274173;22;20448;-68
2022/04/19 10:46:23;;;;;;;2.87;1.70;;;19.90;70.20;;;;;;6246941;22;20470;-68
2022/04/19 10:49:26;;;;;;;1.70;1.60;;;20.00;65.90;;;;;;6274205;22;20397;-68
2022/04/19 10:51:59;;;;;;;1.30;1.30;;;20.20;69.10;;;;;;6273689;22;20946;-68
2022/04/19 10:55:04;;;;;;;1.77;1.70;;;20.50;67.80;;;;;;6274408;22;20724;-68
2022/04/19 11:00:29;;;;;;;2.10;1.40;;;20.80;66.70;;;;;;6251156;22;20396;-67
2022/04/19 11:02:59;;;;;;;1.67;1.20;;;20.80;65.20;;;;;;6273727;22;20420;-68
2022/04/19 11:05:41;;;;;;;2.10;1.50;;;21.10;66.70;;;;;;6247840;22;20409;-68
2022/04/19 11:08:31;;;;;;;1.90;1.40;;;21.20;68.20;;;;;;6274187;22;20401;-68
2022/04/19 11:11:23;;;;;;;2.20;1.63;;;21.40;67.00;;;;;;6273635;22;20443;-68
2022/04/19 11:14:35;;;;;;;2.23;1.47;;;21.50;65.50;;;;;;6274200;22;20404;-67
2022/04/19 11:17:27;;;;;;;2.10;1.47;;;21.50;67.20;;;;;;6273915;22;20746;-68
2022/04/19 11:19:55;;;;;;;2.03;1.60;;;21.70;63.40;;;;;;6237118;22;20487;-69
2022/04/19 11:22:29;;;;;;;1.97;1.57;;;21.70;65.90;;;;;;6273735;22;20401;-68
2022/04/19 11:25:07;;;;;;;4.53;1.67;;;21.90;65.70;;;;;;6272847;22;20401;-68
2022/04/19 11:28:12;;;;;;;2.27;1.70;;;21.90;62.60;;;;;;6273368;22;20695;-70
2022/04/19 11:30:44;;;;;;;1.43;1.33;;;22.00;60.80;;;;;;6273340;22;20439;-68
2022/04/19 11:33:11;;;;;;;2.77;2.10;;;21.60;62.10;;;;;;6273623;22;20405;-68
2022/04/19 11:35:38;;;;;;;3.10;1.83;;;21.90;65.40;;;;;;6273299;22;20429;-68
2022/04/19 11:38:09;;;;;;;1.50;1.43;;;21.80;63.60;;;;;;6273268;22;20416;-68
2022/04/19 11:49:05;;;;;;;1.97;1.50;;;22.00;64.40;;;;;;6273432;22;20444;-68
2022/04/19 11:51:35;;;;;;;1.67;1.43;;;22.30;63.20;;;;;;6272792;22;20419;-68
2022/04/19 11:54:02;;;;;;;2.73;1.60;;;21.70;61.80;;;;;;6246148;22;20907;-68
2022/04/19 11:56:31;;;;;;;3.20;1.90;;;21.20;64.40;;;;;;6273243;22;20397;-67
2022/04/19 11:59:00;;;;;;;1.50;1.37;;;21.20;64.70;;;;;;6273706;22;20738;-67
2022/04/19 12:01:28;;;;;;;2.50;1.80;;;21.60;64.50;;;;;;6273667;22;20417;-67
2022/04/19 12:03:57;;;;;;;2.40;1.87;;;22.00;64.40;;;;;;6273174;22;20413;-68
2022/04/19 12:06:24;;;;;;;2.00;1.70;;;22.40;63.00;;;;;;6273559;22;20408;-68
2022/04/19 12:08:53;;;;;;;2.53;1.70;;;22.80;62.40;;;;;;6273094;22;20918;-68
2022/04/19 12:11:26;;;;;;;2.00;1.70;;;22.90;60.30;;;;;;6246353;22;20739;-68
2022/04/19 12:13:56;;;;;;;1.63;1.60;;;22.90;60.20;;;;;;6247814;22;20479;-68
2022/04/19 12:16:31;;;;;;;2.07;1.97;;;22.90;61.80;;;;;;6247005;22;20457;-69
2022/04/19 12:19:00;;;;;;;3.20;1.70;;;23.00;59.10;;;;;;6272934;22;20966;-68
2022/04/19 12:21:38;;;;;;;2.17;1.80;;;23.10;60.70;;;;;;6284847;22;20811;-68
2022/04/19 12:24:07;;;;;;;1.83;1.40;;;23.20;59.30;;;;;;6276681;22;20397;-68
2022/04/19 12:26:34;;;;;;;1.63;1.30;;;23.30;60.80;;;;;;6276758;22;20451;-68
2022/04/19 12:29:12;;;;;;;3.10;1.93;;;23.50;59.20;;;;;;6250157;22;20393;-68
2022/04/19 12:31:41;;;;;;;2.03;1.90;;;23.60;57.70;;;;;;6276595;22;20432;-70
2022/04/19 12:34:11;;;;;;;2.03;1.67;;;23.90;57.30;;;;;;6276407;22;20451;-69
2022/04/19 12:36:42;;;;;;;2.00;1.37;;;24.20;57.20;;;;;;6250369;22;20430;-68
2022/04/19 12:39:10;;;;;;;2.10;1.70;;;24.20;57.80;;;;;;6277318;22;20487;-68
2022/04/19 12:41:38;;;;;;;3.10;1.83;;;23.70;56.80;;;;;;6277703;22;20400;-68
2022/04/19 12:44:07;;;;;;;1.47;1.43;;;23.70;57.20;;;;;;6277309;22;20428;-68
2022/04/19 12:46:41;;;;;;;1.77;1.70;;;23.10;56.70;;;;;;6277460;22;20911;-68
2022/04/19 12:49:20;;;;;;;1.67;1.50;;;23.00;55.80;;;;;;6277605;22;20393;-68
2022/04/19 12:51:59;;;;;;;1.83;1.70;;;23.20;59.60;;;;;;6277842;22;20401;-68
2022/04/19 12:54:28;;;;;;;1.57;1.40;;;23.60;57.60;;;;;;6277652;22;20479;-68
2022/04/19 12:56:57;;;;;;;1.60;1.50;;;24.00;59.70;;;;;;6277709;22;20414;-68
2022/04/19 12:59:24;;;;;;;1.70;1.43;;;24.20;56.50;;;;;;6277312;22;20547;-68
2022/04/19 13:01:53;;;;;;;2.00;1.57;;;24.30;55.90;;;;;;6250180;22;20467;-67
2022/04/19 13:04:20;;;;;;;2.17;1.50;;;24.50;56.20;;;;;;6277754;22;20794;-67
2022/04/19 13:12:18;;;;;;;2.17;1.60;;;24.80;54.80;;;;;;6277520;22;20388;-70
2022/04/19 13:14:47;;;;;;;2.73;1.57;;;24.90;53.20;;;;;;6277628;22;20470;-67
2022/04/19 13:17:15;;;;;;;3.03;1.90;;;25.00;54.20;;;;;;6277138;22;20412;-67
2022/04/19 13:19:43;;;;;;;1.90;1.57;;;24.60;55.30;;;;;;6277510;22;20440;-67
2022/04/19 13:22:10;;;;;;;3.00;1.60;;;24.50;55.00;;;;;;6277156;22;20415;-67
2022/04/19 13:24:38;;;;;;;2.47;1.80;;;24.60;54.70;;;;;;6277682;22;20420;-69
2022/04/19 13:27:06;;;;;;;2.10;1.53;;;24.80;53.80;;;;;;6277166;22;20491;-69
2022/04/19 13:29:33;;;;;;;1.70;1.50;;;24.80;53.20;;;;;;6277358;22;20451;-69
2022/04/19 13:32:00;;;;;;;1.87;1.77;;;24.80;53.50;;;;;;6277289;22;20451;-69
2022/04/19 13:34:30;;;;;;;1.60;1.43;;;24.90;55.50;;;;;;6275660;22;20892;-67
2022/04/19 13:36:57;;;;;;;3.07;1.53;;;25.10;55.70;;;;;;6275880;22;20468;-67
2022/04/19 13:39:24;;;;;;;1.60;1.40;;;25.30;55.40;;;;;;6275930;22;20493;-67
2022/04/19 13:42:00;;;;;;;2.00;1.60;;;25.20;53.20;;;;;;6275989;22;20758;-67
2022/04/19 13:44:27;;;;;;;1.73;1.57;;;25.20;53.30;;;;;;6286009;22;20773;-67
2022/04/19 13:46:56;;;;;;;6.23;1.60;;;25.30;53.00;;;;;;6275768;22;20447;-67
2022/04/19 13:49:24;;;;;;;1.30;1.30;;;25.20;52.20;;;;;;6275593;22;20451;-69